PWSweather.com
Personal Weather Stations
Station Observations
MIKESPOST
YorkGB

YorkGB

Lat: 53.9577018, Lon: -1.0822855

Elevation: 0

Station Type: WH1081

High Low Average
Temperature 44.2°F6.8°C 37.0°F2.8°C 41.9°F5.5°C
Dew Point 43.7°F6.5°C 34.9°F1.6°C 40.3°F4.6°C
Winds 11.4 mph 18.3 kmh 0.2 mph 0.3 kmh 6.0 mph S9.7 kmh S
Wind Gusts 19.5 mph31.4 kmh 1.0 mph1.6 kmh 9.0 mph14.5 kmh
Humidity 98% 87% 94%
Pressure 30.09 in1019.0 mb 29.70 in1005.8 mb -
Precipitation 0.13 in3.3 mm - -
Hour Temp Dew Point Humidity Winds Wind Gusts Pressure Precip Precip Rate Daily Precip Total
12:08 AM 38.5°F3.6°C 35.2°F1.8°C 88% 8.0 mph SE12.9 kmh SE 11.4 mph18.3 kmh 30.09 in1019.0 mb 0.00 in0.0 mm 0.00 in/hr0.0 mm/hr 0.00 in0.0 mm
12:18 AM 38.3°F3.5°C 35.1°F1.7°C 88% 4.3 mph S6.9 kmh S 6.7 mph10.8 kmh 30.08 in1018.6 mb 0.00 in0.0 mm 0.00 in/hr0.0 mm/hr 0.00 in0.0 mm
12:28 AM 37.9°F3.3°C 35.0°F1.7°C 89% 5.6 mph S9.0 kmh S 9.1 mph14.6 kmh 30.08 in1018.6 mb 0.00 in0.0 mm 0.00 in/hr0.0 mm/hr 0.00 in0.0 mm
12:38 AM 37.6°F3.1°C 34.9°F1.6°C 90% 5.3 mph SSE8.5 kmh SSE 8.1 mph13.0 kmh 30.07 in1018.3 mb 0.00 in0.0 mm 0.00 in/hr0.0 mm/hr 0.00 in0.0 mm
12:48 AM 37.6°F3.1°C 34.9°F1.6°C 90% 5.1 mph S8.2 kmh S 9.1 mph14.6 kmh 30.06 in1017.9 mb 0.00 in0.0 mm 0.00 in/hr0.0 mm/hr 0.00 in0.0 mm
12:58 AM 37.8°F3.2°C 35.1°F1.7°C 90% 5.8 mph S9.3 kmh S 6.7 mph10.8 kmh 30.05 in1017.6 mb 0.00 in0.0 mm 0.00 in/hr0.0 mm/hr 0.00 in0.0 mm
01:07 AM 37.8°F3.2°C 35.1°F1.7°C 90% 4.2 mph S6.8 kmh S 5.7 mph9.2 kmh 30.05 in1017.6 mb 0.00 in0.0 mm 0.00 in/hr0.0 mm/hr 0.00 in0.0 mm
01:17 AM 38.5°F3.6°C 36.1°F2.3°C 91% 6.8 mph S10.9 kmh S 10.4 mph16.7 kmh 30.04 in1017.3 mb 0.00 in0.0 mm 0.00 in/hr0.0 mm/hr 0.00 in0.0 mm
01:27 AM 39.4°F4.1°C 36.7°F2.6°C 90% 9.1 mph SE14.6 kmh SE 16.1 mph25.9 kmh 30.04 in1017.3 mb 0.00 in0.0 mm 0.00 in/hr0.0 mm/hr 0.00 in0.0 mm
01:37 AM 39.9°F4.4°C 36.9°F2.7°C 89% 10.0 mph SE16.1 kmh SE 12.4 mph20.0 kmh 30.03 in1016.9 mb 0.00 in0.0 mm 0.00 in/hr0.0 mm/hr 0.00 in0.0 mm
01:47 AM 40.1°F4.5°C 36.8°F2.7°C 88% 10.4 mph SSE16.7 kmh SSE 14.8 mph23.8 kmh 30.03 in1016.9 mb 0.00 in0.0 mm 0.00 in/hr0.0 mm/hr 0.00 in0.0 mm
01:57 AM 40.3°F4.6°C 37.0°F2.8°C 88% 8.6 mph SSE13.8 kmh SSE 12.4 mph20.0 kmh 30.03 in1016.9 mb 0.00 in0.0 mm 0.00 in/hr0.0 mm/hr 0.00 in0.0 mm
02:07 AM 40.3°F4.6°C 37.0°F2.8°C 88% 9.5 mph SE15.3 kmh SE 13.8 mph22.2 kmh 30.03 in1016.9 mb 0.00 in0.0 mm 0.00 in/hr0.0 mm/hr 0.00 in0.0 mm
02:17 AM 40.3°F4.6°C 36.7°F2.6°C 87% 9.5 mph SE15.3 kmh SE 11.4 mph18.3 kmh 30.02 in1016.6 mb 0.00 in0.0 mm 0.00 in/hr0.0 mm/hr 0.00 in0.0 mm
02:27 AM 40.3°F4.6°C 37.0°F2.8°C 88% 9.6 mph S15.4 kmh S 14.8 mph23.8 kmh 30.02 in1016.6 mb 0.00 in0.0 mm 0.00 in/hr0.0 mm/hr 0.00 in0.0 mm
02:37 AM 40.1°F4.5°C 36.8°F2.7°C 88% 9.6 mph SSE15.4 kmh SSE 14.8 mph23.8 kmh 30.01 in1016.3 mb 0.00 in0.0 mm 0.00 in/hr0.0 mm/hr 0.00 in0.0 mm
02:47 AM 39.9°F4.4°C 36.7°F2.6°C 88% 10.3 mph SSE16.6 kmh SSE 14.8 mph23.8 kmh 30.01 in1016.3 mb 0.00 in0.0 mm 0.00 in/hr0.0 mm/hr 0.00 in0.0 mm
02:57 AM 39.9°F4.4°C 36.7°F2.6°C 88% 10.4 mph S16.7 kmh S 19.5 mph31.4 kmh 30.01 in1016.3 mb 0.00 in0.0 mm 0.00 in/hr0.0 mm/hr 0.00 in0.0 mm
03:07 AM 39.9°F4.4°C 36.7°F2.6°C 88% 10.6 mph S17.1 kmh S 19.5 mph31.4 kmh 30.00 in1015.9 mb 0.00 in0.0 mm 0.00 in/hr0.0 mm/hr 0.00 in0.0 mm
03:17 AM 39.9°F4.4°C 36.7°F2.6°C 88% 10.9 mph S17.5 kmh S 16.1 mph25.9 kmh 29.99 in1015.6 mb 0.00 in0.0 mm 0.00 in/hr0.0 mm/hr 0.00 in0.0 mm
03:27 AM 40.1°F4.5°C 36.8°F2.7°C 88% 10.7 mph S17.2 kmh S 14.8 mph23.8 kmh 29.99 in1015.6 mb 0.00 in0.0 mm 0.00 in/hr0.0 mm/hr 0.00 in0.0 mm
03:37 AM 40.1°F4.5°C 36.8°F2.7°C 88% 7.5 mph SSE12.1 kmh SSE 11.4 mph18.3 kmh 29.99 in1015.6 mb 0.00 in0.0 mm 0.00 in/hr0.0 mm/hr 0.00 in0.0 mm
03:47 AM 40.1°F4.5°C 36.8°F2.7°C 88% 10.8 mph SE17.4 kmh SE 18.1 mph29.1 kmh 29.98 in1015.2 mb 0.00 in0.0 mm 0.00 in/hr0.0 mm/hr 0.00 in0.0 mm
03:57 AM 40.1°F4.5°C 37.1°F2.8°C 89% 9.8 mph SSE15.8 kmh SSE 12.4 mph20.0 kmh 29.98 in1015.2 mb 0.00 in0.0 mm 0.00 in/hr0.0 mm/hr 0.00 in0.0 mm
04:07 AM 40.1°F4.5°C 37.1°F2.8°C 89% 9.0 mph S14.5 kmh S 12.4 mph20.0 kmh 29.97 in1014.9 mb 0.00 in0.0 mm 0.00 in/hr0.0 mm/hr 0.00 in0.0 mm
04:17 AM 39.9°F4.4°C 36.9°F2.7°C 89% 7.2 mph S11.6 kmh S 11.4 mph18.3 kmh 29.97 in1014.9 mb 0.00 in0.0 mm 0.00 in/hr0.0 mm/hr 0.00 in0.0 mm
04:27 AM 39.9°F4.4°C 36.9°F2.7°C 89% 5.7 mph S9.2 kmh S 8.1 mph13.0 kmh 29.97 in1014.9 mb 0.00 in0.0 mm 0.00 in/hr0.0 mm/hr 0.00 in0.0 mm
04:37 AM 39.9°F4.4°C 37.2°F2.9°C 90% 5.8 mph SE9.3 kmh SE 8.1 mph13.0 kmh 29.96 in1014.6 mb 0.00 in0.0 mm 0.00 in/hr0.0 mm/hr 0.00 in0.0 mm
04:47 AM 39.9°F4.4°C 37.2°F2.9°C 90% 5.6 mph SSE9.0 kmh SSE 10.4 mph16.7 kmh 29.96 in1014.6 mb 0.00 in0.0 mm 0.00 in/hr0.0 mm/hr 0.00 in0.0 mm
04:57 AM 39.7°F4.3°C 37.3°F2.9°C 91% 4.2 mph S6.8 kmh S 10.4 mph16.7 kmh 29.96 in1014.6 mb 0.00 in0.0 mm 0.00 in/hr0.0 mm/hr 0.00 in0.0 mm
05:07 AM 39.7°F4.3°C 37.3°F2.9°C 91% 6.5 mph S10.5 kmh S 11.4 mph18.3 kmh 29.96 in1014.6 mb 0.00 in0.0 mm 0.00 in/hr0.0 mm/hr 0.00 in0.0 mm
05:17 AM 39.7°F4.3°C 37.3°F2.9°C 91% 8.0 mph SE12.9 kmh SE 11.4 mph18.3 kmh 29.95 in1014.2 mb 0.00 in0.0 mm 0.00 in/hr0.0 mm/hr 0.00 in0.0 mm
05:27 AM 39.7°F4.3°C 37.6°F3.1°C 92% 7.3 mph SE11.7 kmh SE 10.4 mph16.7 kmh 29.95 in1014.2 mb 0.00 in0.0 mm 0.00 in/hr0.0 mm/hr 0.00 in0.0 mm
05:37 AM 39.9°F4.4°C 37.8°F3.2°C 92% 6.7 mph SSE10.8 kmh SSE 9.1 mph14.6 kmh 29.95 in1014.2 mb 0.00 in0.0 mm 0.00 in/hr0.0 mm/hr 0.00 in0.0 mm
05:47 AM 40.1°F4.5°C 38.0°F3.3°C 92% 5.6 mph SE9.0 kmh SE 9.1 mph14.6 kmh 29.94 in1013.9 mb 0.00 in0.0 mm 0.00 in/hr0.0 mm/hr 0.00 in0.0 mm
05:57 AM 40.8°F4.9°C 38.7°F3.7°C 92% 6.8 mph ESE10.9 kmh ESE 9.1 mph14.6 kmh 29.94 in1013.9 mb 0.00 in0.0 mm 0.00 in/hr0.0 mm/hr 0.00 in0.0 mm
06:07 AM 41.0°F5.0°C 38.6°F3.7°C 91% 8.4 mph S13.5 kmh S 11.4 mph18.3 kmh 29.94 in1013.9 mb 0.00 in0.0 mm 0.00 in/hr0.0 mm/hr 0.00 in0.0 mm
06:17 AM 40.8°F4.9°C 38.4°F3.6°C 91% 7.7 mph S12.4 kmh S 12.4 mph20.0 kmh 29.94 in1013.9 mb 0.00 in0.0 mm 0.00 in/hr0.0 mm/hr 0.00 in0.0 mm
06:27 AM 41.0°F5.0°C 38.6°F3.7°C 91% 8.0 mph SSW12.9 kmh SSW 13.8 mph22.2 kmh 29.94 in1013.9 mb 0.00 in0.0 mm 0.00 in/hr0.0 mm/hr 0.00 in0.0 mm
06:37 AM 41.2°F5.1°C 38.8°F3.8°C 91% 5.9 mph S9.5 kmh S 9.1 mph14.6 kmh 29.93 in1013.5 mb 0.00 in0.0 mm 0.00 in/hr0.0 mm/hr 0.00 in0.0 mm
06:47 AM 41.4°F5.2°C 39.2°F4.0°C 92% 5.8 mph SSE9.3 kmh SSE 6.7 mph10.8 kmh 29.92 in1013.2 mb 0.00 in0.0 mm 0.00 in/hr0.0 mm/hr 0.00 in0.0 mm
06:57 AM 41.4°F5.2°C 39.2°F4.0°C 92% 5.3 mph SSE8.5 kmh SSE 8.1 mph13.0 kmh 29.91 in1012.9 mb 0.00 in0.0 mm 0.00 in/hr0.0 mm/hr 0.00 in0.0 mm
07:07 AM 42.1°F5.6°C 39.9°F4.4°C 92% 6.4 mph SE10.3 kmh SE 12.4 mph20.0 kmh 29.91 in1012.9 mb 0.00 in0.0 mm 0.00 in/hr0.0 mm/hr 0.00 in0.0 mm
07:17 AM 42.4°F5.8°C 40.0°F4.4°C 91% 8.6 mph S13.8 kmh S 12.4 mph20.0 kmh 29.90 in1012.5 mb 0.00 in0.0 mm 0.00 in/hr0.0 mm/hr 0.00 in0.0 mm
07:27 AM 42.4°F5.8°C 40.0°F4.4°C 91% 7.8 mph S12.6 kmh S 11.4 mph18.3 kmh 29.90 in1012.5 mb 0.00 in0.0 mm 0.00 in/hr0.0 mm/hr 0.00 in0.0 mm
07:37 AM 42.3°F5.7°C 39.8°F4.3°C 91% 7.4 mph S11.9 kmh S 11.4 mph18.3 kmh 29.90 in1012.5 mb 0.00 in0.0 mm 0.00 in/hr0.0 mm/hr 0.00 in0.0 mm
07:47 AM 41.9°F5.5°C 39.8°F4.3°C 92% 6.8 mph S10.9 kmh S 10.4 mph16.7 kmh 29.90 in1012.5 mb 0.00 in0.0 mm 0.00 in/hr0.0 mm/hr 0.00 in0.0 mm
07:57 AM 41.9°F5.5°C 39.8°F4.3°C 92% 8.1 mph SE13.0 kmh SE 11.4 mph18.3 kmh 29.89 in1012.2 mb 0.00 in0.0 mm 0.00 in/hr0.0 mm/hr 0.00 in0.0 mm
08:07 AM 41.7°F5.4°C 39.9°F4.4°C 93% 8.7 mph SE14.0 kmh SE 13.8 mph22.2 kmh 29.89 in1012.2 mb 0.00 in0.0 mm 0.00 in/hr0.0 mm/hr 0.00 in0.0 mm
08:17 AM 41.5°F5.3°C 39.7°F4.3°C 93% 8.2 mph S13.2 kmh S 11.4 mph18.3 kmh 29.89 in1012.2 mb 0.00 in0.0 mm 0.00 in/hr0.0 mm/hr 0.00 in0.0 mm
08:27 AM 41.7°F5.4°C 39.9°F4.4°C 93% 6.2 mph S10.0 kmh S 9.1 mph14.6 kmh 29.90 in1012.5 mb 0.00 in0.0 mm 0.00 in/hr0.0 mm/hr 0.00 in0.0 mm
08:37 AM 41.9°F5.5°C 40.3°F4.6°C 94% 5.3 mph S8.5 kmh S 8.1 mph13.0 kmh 29.89 in1012.2 mb 0.00 in0.0 mm 0.00 in/hr0.0 mm/hr 0.00 in0.0 mm
08:47 AM 42.3°F5.7°C 40.7°F4.8°C 94% 6.3 mph S10.1 kmh S 8.1 mph13.0 kmh 29.89 in1012.2 mb 0.00 in0.0 mm 0.00 in/hr0.0 mm/hr 0.00 in0.0 mm
08:57 AM 42.6°F5.9°C 41.0°F5.0°C 94% 6.3 mph S10.1 kmh S 10.4 mph16.7 kmh 29.89 in1012.2 mb 0.00 in0.0 mm 0.00 in/hr0.0 mm/hr 0.00 in0.0 mm
09:07 AM 42.8°F6.0°C 40.9°F4.9°C 93% 6.4 mph S10.3 kmh S 9.1 mph14.6 kmh 29.89 in1012.2 mb 0.00 in0.0 mm 0.00 in/hr0.0 mm/hr 0.00 in0.0 mm
09:17 AM 43.0°F6.1°C 41.1°F5.1°C 93% 5.5 mph S8.9 kmh S 6.7 mph10.8 kmh 29.89 in1012.2 mb 0.00 in0.0 mm 0.00 in/hr0.0 mm/hr 0.00 in0.0 mm
09:27 AM 43.2°F6.2°C 41.3°F5.2°C 93% 6.4 mph S10.3 kmh S 9.1 mph14.6 kmh 29.88 in1011.9 mb 0.00 in0.0 mm 0.00 in/hr0.0 mm/hr 0.00 in0.0 mm
09:37 AM 43.3°F6.3°C 41.5°F5.3°C 93% 5.5 mph S8.9 kmh S 8.1 mph13.0 kmh 29.88 in1011.9 mb 0.00 in0.0 mm 0.00 in/hr0.0 mm/hr 0.00 in0.0 mm
09:47 AM 43.5°F6.4°C 41.4°F5.2°C 92% 8.7 mph S14.0 kmh S 13.8 mph22.2 kmh 29.88 in1011.9 mb 0.00 in0.0 mm 0.00 in/hr0.0 mm/hr 0.00 in0.0 mm
09:57 AM 43.7°F6.5°C 41.5°F5.3°C 92% 8.4 mph SSE13.5 kmh SSE 12.4 mph20.0 kmh 29.88 in1011.9 mb 0.00 in0.0 mm 0.00 in/hr0.0 mm/hr 0.00 in0.0 mm
10:07 AM 43.9°F6.6°C 41.7°F5.4°C 92% 9.4 mph SSE15.1 kmh SSE 13.8 mph22.2 kmh 29.88 in1011.9 mb 0.00 in0.0 mm 0.00 in/hr0.0 mm/hr 0.00 in0.0 mm
10:17 AM 43.9°F6.6°C 41.4°F5.2°C 91% 8.8 mph SSE14.2 kmh SSE 13.8 mph22.2 kmh 29.88 in1011.9 mb 0.00 in0.0 mm 0.00 in/hr0.0 mm/hr 0.00 in0.0 mm
10:27 AM 44.1°F6.7°C 41.6°F5.3°C 91% 11.4 mph S18.3 kmh S 16.1 mph25.9 kmh 29.87 in1011.5 mb 0.00 in0.0 mm 0.00 in/hr0.0 mm/hr 0.00 in0.0 mm
10:37 AM 44.1°F6.7°C 41.6°F5.3°C 91% 9.5 mph S15.3 kmh S 13.8 mph22.2 kmh 29.87 in1011.5 mb 0.00 in0.0 mm 0.00 in/hr0.0 mm/hr 0.00 in0.0 mm
10:47 AM 44.1°F6.7°C 41.6°F5.3°C 91% 7.8 mph SSE12.6 kmh SSE 11.4 mph18.3 kmh 29.87 in1011.5 mb 0.00 in0.0 mm 0.00 in/hr0.0 mm/hr 0.00 in0.0 mm
10:57 AM 43.9°F6.6°C 41.7°F5.4°C 92% 7.7 mph SSE12.4 kmh SSE 11.4 mph18.3 kmh 29.87 in1011.5 mb 0.00 in0.0 mm 0.00 in/hr0.0 mm/hr 0.00 in0.0 mm
11:07 AM 43.9°F6.6°C 42.0°F5.6°C 93% 6.5 mph SSE10.5 kmh SSE 10.4 mph16.7 kmh 29.86 in1011.2 mb 0.01 in0.3 mm 0.01 in/hr0.3 mm/hr 0.01 in0.3 mm
11:17 AM 43.7°F6.5°C 42.1°F5.6°C 94% 7.2 mph S11.6 kmh S 11.4 mph18.3 kmh 29.85 in1010.8 mb 0.04 in1.0 mm 0.18 in/hr4.6 mm/hr 0.04 in1.0 mm
11:27 AM 43.7°F6.5°C 42.4°F5.8°C 95% 7.4 mph S11.9 kmh S 10.4 mph16.7 kmh 29.84 in1010.5 mb 0.06 in1.5 mm 0.12 in/hr3.0 mm/hr 0.06 in1.5 mm
11:37 AM 43.9°F6.6°C 42.5°F5.8°C 95% 7.6 mph SE12.2 kmh SE 10.4 mph16.7 kmh 29.84 in1010.5 mb 0.07 in1.8 mm 0.06 in/hr1.5 mm/hr 0.07 in1.8 mm
11:47 AM 43.9°F6.6°C 42.8°F6.0°C 96% 8.1 mph SSE13.0 kmh SSE 10.4 mph16.7 kmh 29.84 in1010.5 mb 0.07 in1.8 mm 0.00 in/hr0.0 mm/hr 0.08 in2.0 mm
11:57 AM 44.1°F6.7°C 43.0°F6.1°C 96% 6.9 mph SE11.1 kmh SE 10.4 mph16.7 kmh 29.83 in1010.2 mb 0.08 in2.0 mm 0.06 in/hr1.5 mm/hr 0.08 in2.0 mm
12:07 PM 44.2°F6.8°C 43.2°F6.2°C 96% 6.8 mph SSE10.9 kmh SSE 9.1 mph14.6 kmh 29.83 in1010.2 mb 0.07 in1.8 mm 0.00 in/hr0.0 mm/hr 0.08 in2.0 mm
12:17 PM 44.2°F6.8°C 43.2°F6.2°C 96% 7.2 mph SE11.6 kmh SE 11.4 mph18.3 kmh 29.83 in1010.2 mb 0.05 in1.3 mm 0.00 in/hr0.0 mm/hr 0.08 in2.0 mm
12:27 PM 44.2°F6.8°C 43.2°F6.2°C 96% 7.8 mph SE12.6 kmh SE 10.4 mph16.7 kmh 29.83 in1010.2 mb 0.02 in0.5 mm 0.00 in/hr0.0 mm/hr 0.08 in2.0 mm
12:37 PM 44.1°F6.7°C 43.0°F6.1°C 96% 6.5 mph SE10.5 kmh SE 10.4 mph16.7 kmh 29.82 in1009.8 mb 0.02 in0.5 mm 0.00 in/hr0.0 mm/hr 0.09 in2.3 mm
12:47 PM 44.1°F6.7°C 43.0°F6.1°C 96% 6.8 mph SE10.9 kmh SE 9.1 mph14.6 kmh 29.82 in1009.8 mb 0.04 in1.0 mm 0.12 in/hr3.0 mm/hr 0.11 in2.8 mm
12:57 PM 44.1°F6.7°C 43.0°F6.1°C 96% 6.2 mph SSE10.0 kmh SSE 10.4 mph16.7 kmh 29.81 in1009.5 mb 0.04 in1.0 mm 0.00 in/hr0.0 mm/hr 0.12 in3.0 mm
01:07 PM 44.1°F6.7°C 43.3°F6.3°C 97% 6.3 mph SE10.1 kmh SE 9.1 mph14.6 kmh 29.81 in1009.5 mb 0.04 in1.0 mm 0.00 in/hr0.0 mm/hr 0.12 in3.0 mm
01:17 PM 44.1°F6.7°C 43.3°F6.3°C 97% 5.6 mph S9.0 kmh S 9.1 mph14.6 kmh 29.80 in1009.1 mb 0.05 in1.3 mm 0.06 in/hr1.5 mm/hr 0.13 in3.3 mm
01:27 PM 44.2°F6.8°C 43.4°F6.3°C 97% 7.3 mph S11.7 kmh S 10.4 mph16.7 kmh 29.79 in1008.8 mb 0.05 in1.3 mm 0.00 in/hr0.0 mm/hr 0.13 in3.3 mm
01:37 PM 44.2°F6.8°C 43.4°F6.3°C 97% 8.3 mph S13.4 kmh S 11.4 mph18.3 kmh 29.79 in1008.8 mb 0.04 in1.0 mm 0.00 in/hr0.0 mm/hr 0.13 in3.3 mm
01:47 PM 44.1°F6.7°C 43.3°F6.3°C 97% 5.9 mph S9.5 kmh S 9.1 mph14.6 kmh 29.79 in1008.8 mb 0.02 in0.5 mm 0.00 in/hr0.0 mm/hr 0.13 in3.3 mm
01:57 PM 44.2°F6.8°C 43.4°F6.3°C 97% 7.2 mph S11.6 kmh S 9.1 mph14.6 kmh 29.78 in1008.5 mb 0.01 in0.3 mm 0.00 in/hr0.0 mm/hr 0.13 in3.3 mm
02:07 PM 44.1°F6.7°C 43.3°F6.3°C 97% 5.0 mph S8.0 kmh S 8.1 mph13.0 kmh 29.79 in1008.8 mb 0.01 in0.3 mm 0.00 in/hr0.0 mm/hr 0.13 in3.3 mm
02:17 PM 44.2°F6.8°C 43.4°F6.3°C 97% 5.3 mph SE8.5 kmh SE 9.1 mph14.6 kmh 29.78 in1008.5 mb 0.00 in0.0 mm 0.00 in/hr0.0 mm/hr 0.13 in3.3 mm
02:27 PM 44.2°F6.8°C 43.4°F6.3°C 97% 3.7 mph S6.0 kmh S 6.7 mph10.8 kmh 29.78 in1008.5 mb 0.00 in0.0 mm 0.00 in/hr0.0 mm/hr 0.13 in3.3 mm
02:37 PM 44.2°F6.8°C 43.4°F6.3°C 97% 4.0 mph S6.4 kmh S 6.7 mph10.8 kmh 29.77 in1008.1 mb 0.00 in0.0 mm 0.00 in/hr0.0 mm/hr 0.13 in3.3 mm
02:47 PM 44.2°F6.8°C 43.4°F6.3°C 97% 5.5 mph S8.9 kmh S 8.1 mph13.0 kmh 29.77 in1008.1 mb 0.00 in0.0 mm 0.00 in/hr0.0 mm/hr 0.13 in3.3 mm
02:57 PM 44.1°F6.7°C 43.3°F6.3°C 97% 3.8 mph S6.1 kmh S 5.7 mph9.2 kmh 29.77 in1008.1 mb 0.00 in0.0 mm 0.00 in/hr0.0 mm/hr 0.13 in3.3 mm
03:07 PM 44.1°F6.7°C 43.3°F6.3°C 97% 2.5 mph S4.0 kmh S 4.7 mph7.6 kmh 29.77 in1008.1 mb 0.00 in0.0 mm 0.00 in/hr0.0 mm/hr 0.13 in3.3 mm
03:17 PM 43.9°F6.6°C 43.1°F6.2°C 97% 2.1 mph SSE3.4 kmh SSE 5.7 mph9.2 kmh 29.77 in1008.1 mb 0.00 in0.0 mm 0.00 in/hr0.0 mm/hr 0.13 in3.3 mm
03:27 PM 43.9°F6.6°C 43.4°F6.3°C 98% 3.4 mph S5.5 kmh S 5.7 mph9.2 kmh 29.76 in1007.8 mb 0.00 in0.0 mm 0.00 in/hr0.0 mm/hr 0.13 in3.3 mm
03:37 PM 43.9°F6.6°C 43.4°F6.3°C 98% 5.4 mph S8.7 kmh S 9.1 mph14.6 kmh 29.76 in1007.8 mb 0.00 in0.0 mm 0.00 in/hr0.0 mm/hr 0.13 in3.3 mm
03:47 PM 43.9°F6.6°C 43.4°F6.3°C 98% 5.9 mph S9.5 kmh S 10.4 mph16.7 kmh 29.75 in1007.5 mb 0.00 in0.0 mm 0.00 in/hr0.0 mm/hr 0.13 in3.3 mm
03:57 PM 43.9°F6.6°C 43.4°F6.3°C 98% 5.6 mph SE9.0 kmh SE 8.1 mph13.0 kmh 29.75 in1007.5 mb 0.00 in0.0 mm 0.00 in/hr0.0 mm/hr 0.13 in3.3 mm
04:07 PM 43.9°F6.6°C 43.4°F6.3°C 98% 5.2 mph SE8.4 kmh SE 9.1 mph14.6 kmh 29.75 in1007.5 mb 0.00 in0.0 mm 0.00 in/hr0.0 mm/hr 0.13 in3.3 mm
04:17 PM 43.9°F6.6°C 43.4°F6.3°C 98% 4.9 mph SE7.9 kmh SE 6.7 mph10.8 kmh 29.75 in1007.5 mb 0.00 in0.0 mm 0.00 in/hr0.0 mm/hr 0.13 in3.3 mm
04:27 PM 44.1°F6.7°C 43.5°F6.4°C 98% 5.4 mph SE8.7 kmh SE 8.1 mph13.0 kmh 29.75 in1007.5 mb 0.00 in0.0 mm 0.00 in/hr0.0 mm/hr 0.13 in3.3 mm
04:37 PM 44.2°F6.8°C 43.7°F6.5°C 98% 5.9 mph SSE9.5 kmh SSE 8.1 mph13.0 kmh 29.74 in1007.1 mb 0.00 in0.0 mm 0.00 in/hr0.0 mm/hr 0.13 in3.3 mm
04:47 PM 44.2°F6.8°C 43.4°F6.3°C 97% 6.9 mph S11.1 kmh S 10.4 mph16.7 kmh 29.74 in1007.1 mb 0.00 in0.0 mm 0.00 in/hr0.0 mm/hr 0.13 in3.3 mm
04:57 PM 44.2°F6.8°C 43.4°F6.3°C 97% 5.5 mph S8.9 kmh S 10.4 mph16.7 kmh 29.73 in1006.8 mb 0.00 in0.0 mm 0.00 in/hr0.0 mm/hr 0.13 in3.3 mm
05:07 PM 44.1°F6.7°C 43.3°F6.3°C 97% 5.4 mph S8.7 kmh S 9.1 mph14.6 kmh 29.73 in1006.8 mb 0.00 in0.0 mm 0.00 in/hr0.0 mm/hr 0.13 in3.3 mm
05:17 PM 44.1°F6.7°C 43.3°F6.3°C 97% 5.6 mph SSE9.0 kmh SSE 9.1 mph14.6 kmh 29.73 in1006.8 mb 0.00 in0.0 mm 0.00 in/hr0.0 mm/hr 0.13 in3.3 mm
05:27 PM 43.9°F6.6°C 43.1°F6.2°C 97% 6.0 mph SSE9.7 kmh SSE 8.1 mph13.0 kmh 29.73 in1006.8 mb 0.00 in0.0 mm 0.00 in/hr0.0 mm/hr 0.13 in3.3 mm
05:37 PM 43.9°F6.6°C 43.1°F6.2°C 97% 3.1 mph SE5.0 kmh SE 5.7 mph9.2 kmh 29.73 in1006.8 mb 0.00 in0.0 mm 0.00 in/hr0.0 mm/hr 0.13 in3.3 mm
05:47 PM 43.7°F6.5°C 42.9°F6.1°C 97% 4.6 mph SSE7.4 kmh SSE 6.7 mph10.8 kmh 29.72 in1006.4 mb 0.00 in0.0 mm 0.00 in/hr0.0 mm/hr 0.13 in3.3 mm
05:57 PM 43.5°F6.4°C 43.0°F6.1°C 98% 3.8 mph S6.1 kmh S 6.7 mph10.8 kmh 29.71 in1006.1 mb 0.00 in0.0 mm 0.00 in/hr0.0 mm/hr 0.13 in3.3 mm
06:07 PM 43.3°F6.3°C 42.8°F6.0°C 98% 3.3 mph S5.3 kmh S 6.7 mph10.8 kmh 29.72 in1006.4 mb 0.00 in0.0 mm 0.00 in/hr0.0 mm/hr 0.13 in3.3 mm
06:17 PM 43.3°F6.3°C 42.8°F6.0°C 98% 3.1 mph SE5.0 kmh SE 4.7 mph7.6 kmh 29.71 in1006.1 mb 0.00 in0.0 mm 0.00 in/hr0.0 mm/hr 0.13 in3.3 mm
06:27 PM 43.3°F6.3°C 42.8°F6.0°C 98% 2.7 mph SE4.3 kmh SE 6.7 mph10.8 kmh 29.71 in1006.1 mb 0.00 in0.0 mm 0.00 in/hr0.0 mm/hr 0.13 in3.3 mm
06:37 PM 43.2°F6.2°C 42.6°F5.9°C 98% 2.4 mph SE3.9 kmh SE 4.7 mph7.6 kmh 29.72 in1006.4 mb 0.00 in0.0 mm 0.00 in/hr0.0 mm/hr 0.13 in3.3 mm
06:47 PM 43.0°F6.1°C 42.5°F5.8°C 98% 1.9 mph S3.1 kmh S 3.4 mph5.5 kmh 29.72 in1006.4 mb 0.00 in0.0 mm 0.00 in/hr0.0 mm/hr 0.13 in3.3 mm
06:57 PM 43.0°F6.1°C 42.5°F5.8°C 98% 1.2 mph S1.9 kmh S 3.4 mph5.5 kmh 29.71 in1006.1 mb 0.00 in0.0 mm 0.00 in/hr0.0 mm/hr 0.13 in3.3 mm
07:07 PM 42.8°F6.0°C 42.3°F5.7°C 98% 1.1 mph S1.8 kmh S 2.3 mph3.7 kmh 29.71 in1006.1 mb 0.00 in0.0 mm 0.00 in/hr0.0 mm/hr 0.13 in3.3 mm
07:17 PM 42.6°F5.9°C 42.1°F5.6°C 98% 0.5 mph SSW0.8 kmh SSW 1.0 mph1.6 kmh 29.71 in1006.1 mb 0.00 in0.0 mm 0.00 in/hr0.0 mm/hr 0.13 in3.3 mm
07:27 PM 42.4°F5.8°C 41.9°F5.5°C 98% 0.9 mph SE1.4 kmh SE 2.3 mph3.7 kmh 29.71 in1006.1 mb 0.00 in0.0 mm 0.00 in/hr0.0 mm/hr 0.13 in3.3 mm
07:37 PM 42.4°F5.8°C 41.9°F5.5°C 98% 2.1 mph SSE3.4 kmh SSE 4.7 mph7.6 kmh 29.71 in1006.1 mb 0.00 in0.0 mm 0.00 in/hr0.0 mm/hr 0.13 in3.3 mm
07:47 PM 42.4°F5.8°C 41.9°F5.5°C 98% 1.9 mph SE3.1 kmh SE 4.7 mph7.6 kmh 29.71 in1006.1 mb 0.00 in0.0 mm 0.00 in/hr0.0 mm/hr 0.13 in3.3 mm
07:57 PM 42.3°F5.7°C 41.7°F5.4°C 98% 0.8 mph SE1.3 kmh SE 2.3 mph3.7 kmh 29.71 in1006.1 mb 0.00 in0.0 mm 0.00 in/hr0.0 mm/hr 0.13 in3.3 mm
08:07 PM 42.1°F5.6°C 41.6°F5.3°C 98% 0.9 mph SE1.4 kmh SE 2.3 mph3.7 kmh 29.71 in1006.1 mb 0.00 in0.0 mm 0.00 in/hr0.0 mm/hr 0.13 in3.3 mm
08:17 PM 42.1°F5.6°C 41.6°F5.3°C 98% 1.3 mph E2.1 kmh E 2.3 mph3.7 kmh 29.71 in1006.1 mb 0.00 in0.0 mm 0.00 in/hr0.0 mm/hr 0.13 in3.3 mm
08:27 PM 41.9°F5.5°C 41.4°F5.2°C 98% 1.5 mph SE2.4 kmh SE 3.4 mph5.5 kmh 29.70 in1005.8 mb 0.00 in0.0 mm 0.00 in/hr0.0 mm/hr 0.13 in3.3 mm
08:37 PM 41.9°F5.5°C 41.4°F5.2°C 98% 1.1 mph E1.8 kmh E 2.3 mph3.7 kmh 29.71 in1006.1 mb 0.00 in0.0 mm 0.00 in/hr0.0 mm/hr 0.13 in3.3 mm
08:47 PM 41.9°F5.5°C 41.4°F5.2°C 98% 1.5 mph SE2.4 kmh SE 2.3 mph3.7 kmh 29.70 in1005.8 mb 0.00 in0.0 mm 0.00 in/hr0.0 mm/hr 0.13 in3.3 mm
08:57 PM 41.9°F5.5°C 41.4°F5.2°C 98% 0.8 mph ENE1.3 kmh ENE 1.0 mph1.6 kmh 29.70 in1005.8 mb 0.00 in0.0 mm 0.00 in/hr0.0 mm/hr 0.13 in3.3 mm
09:07 PM 41.7°F5.4°C 41.2°F5.1°C 98% 0.6 mph SE1.0 kmh SE 2.3 mph3.7 kmh 29.71 in1006.1 mb 0.00 in0.0 mm 0.00 in/hr0.0 mm/hr 0.13 in3.3 mm
09:17 PM 41.5°F5.3°C 41.0°F5.0°C 98% 0.2 mph SSW0.3 kmh SSW 1.0 mph1.6 kmh 29.71 in1006.1 mb 0.00 in0.0 mm 0.00 in/hr0.0 mm/hr 0.13 in3.3 mm
09:27 PM 41.2°F5.1°C 40.7°F4.8°C 98% 0.7 mph WNW1.1 kmh WNW 3.4 mph5.5 kmh 29.71 in1006.1 mb 0.00 in0.0 mm 0.00 in/hr0.0 mm/hr 0.13 in3.3 mm
09:37 PM 41.0°F5.0°C 40.5°F4.7°C 98% 1.0 mph W1.6 kmh W 3.4 mph5.5 kmh 29.72 in1006.4 mb 0.00 in0.0 mm 0.00 in/hr0.0 mm/hr 0.13 in3.3 mm
09:47 PM 40.6°F4.8°C 40.1°F4.5°C 98% 0.9 mph SW1.4 kmh SW 2.3 mph3.7 kmh 29.72 in1006.4 mb 0.00 in0.0 mm 0.00 in/hr0.0 mm/hr 0.13 in3.3 mm
09:57 PM 40.3°F4.6°C 39.8°F4.3°C 98% 1.2 mph WNW1.9 kmh WNW 2.3 mph3.7 kmh 29.72 in1006.4 mb 0.00 in0.0 mm 0.00 in/hr0.0 mm/hr 0.13 in3.3 mm
10:07 PM 39.9°F4.4°C 39.4°F4.1°C 98% 1.6 mph SSW2.6 kmh SSW 5.7 mph9.2 kmh 29.71 in1006.1 mb 0.00 in0.0 mm 0.00 in/hr0.0 mm/hr 0.13 in3.3 mm
10:17 PM 39.6°F4.2°C 39.0°F3.9°C 98% 0.4 mph WSW0.6 kmh WSW 1.0 mph1.6 kmh 29.72 in1006.4 mb 0.00 in0.0 mm 0.00 in/hr0.0 mm/hr 0.13 in3.3 mm
10:27 PM 39.4°F4.1°C 38.9°F3.8°C 98% 0.7 mph N1.1 kmh N 3.4 mph5.5 kmh 29.72 in1006.4 mb 0.00 in0.0 mm 0.00 in/hr0.0 mm/hr 0.13 in3.3 mm
10:37 PM 39.0°F3.9°C 38.5°F3.6°C 98% 0.5 mph NNW0.8 kmh NNW 1.0 mph1.6 kmh 29.71 in1006.1 mb 0.00 in0.0 mm 0.00 in/hr0.0 mm/hr 0.13 in3.3 mm
10:47 PM 38.7°F3.7°C 38.1°F3.4°C 98% 1.1 mph W1.8 kmh W 2.3 mph3.7 kmh 29.72 in1006.4 mb 0.00 in0.0 mm 0.00 in/hr0.0 mm/hr 0.13 in3.3 mm
10:57 PM 38.3°F3.5°C 37.8°F3.2°C 98% 2.0 mph SE3.2 kmh SE 3.4 mph5.5 kmh 29.72 in1006.4 mb 0.00 in0.0 mm 0.00 in/hr0.0 mm/hr 0.13 in3.3 mm
11:07 PM 37.8°F3.2°C 37.3°F2.9°C 98% 1.2 mph W1.9 kmh W 3.4 mph5.5 kmh 29.72 in1006.4 mb 0.00 in0.0 mm 0.00 in/hr0.0 mm/hr 0.13 in3.3 mm
11:17 PM 37.4°F3.0°C 36.9°F2.7°C 98% 1.1 mph W1.8 kmh W 3.4 mph5.5 kmh 29.73 in1006.8 mb 0.00 in0.0 mm 0.00 in/hr0.0 mm/hr 0.13 in3.3 mm
11:27 PM 37.0°F2.8°C 36.5°F2.5°C 98% 1.0 mph WSW1.6 kmh WSW 2.3 mph3.7 kmh 29.73 in1006.8 mb 0.00 in0.0 mm 0.00 in/hr0.0 mm/hr 0.13 in3.3 mm
11:37 PM 36.5°F2.5°C 36.0°F2.2°C 98% 0.3 mph WSW0.5 kmh WSW 1.0 mph1.6 kmh 29.73 in1006.8 mb 0.00 in0.0 mm 0.00 in/hr0.0 mm/hr 0.13 in3.3 mm
11:47 PM 36.3°F2.4°C 35.8°F2.1°C 98% 0.3 mph NW0.5 kmh NW 1.0 mph1.6 kmh 29.73 in1006.8 mb 0.00 in0.0 mm 0.00 in/hr0.0 mm/hr 0.13 in3.3 mm
11:57 PM 36.1°F2.3°C 35.6°F2.0°C 98% 0.1 mph W0.2 kmh W 1.0 mph1.6 kmh 29.73 in1006.8 mb 0.00 in0.0 mm 0.00 in/hr0.0 mm/hr 0.13 in3.3 mm